METAR Data
IDs: Format: Raw Decoded Include TAF

Data at: 1105 UTC 07 Dec 2022

KRDU 071051Z 24004KT 2SM BR BKN004 OVC010 15/14 A3024 RMK AO2 SLP237 T01500139

KRDU 070957Z 0710/0806 VRB05KT 2SM BR BKN004 OVC010
  FM071400 23003KT 4SM -RA BR BKN009 OVC015
  FM071900 23004KT P6SM BKN012 OVC020
  FM080100 VRB03KT P6SM OVC008